createdAt,value
2019-04-26T00:00:18.048Z,18.92
2019-04-26T00:00:57.976Z,19
2019-04-26T00:01:38.550Z,19.02
2019-04-26T00:02:19.128Z,18.92
2019-04-26T00:02:59.769Z,18.99
2019-04-26T00:03:40.357Z,19.04
2019-04-26T00:04:20.927Z,18.86
2019-04-26T00:05:01.497Z,18.89
2019-04-26T00:05:42.073Z,18.93
2019-04-26T00:06:22.642Z,18.88
2019-04-26T00:07:03.248Z,18.96
2019-04-26T00:07:43.776Z,18.89
2019-04-26T00:08:24.348Z,18.9
2019-04-26T00:09:04.911Z,18.93
2019-04-26T00:09:45.489Z,18.89
2019-04-26T00:10:26.064Z,18.89
2019-04-26T00:11:06.638Z,18.9
2019-04-26T00:11:47.205Z,18.9
2019-04-26T00:12:27.776Z,19.02
2019-04-26T00:13:08.318Z,18.89
2019-04-26T00:13:48.926Z,18.86
2019-04-26T00:14:29.503Z,18.89
2019-04-26T00:15:10.223Z,18.92
2019-04-26T00:15:50.672Z,18.93
2019-04-26T00:16:31.270Z,18.98
2019-04-26T00:17:11.821Z,18.88
2019-04-26T00:17:52.394Z,18.89
2019-04-26T00:18:32.961Z,18.84
2019-04-26T00:19:13.851Z,18.88
2019-04-26T00:19:54.081Z,18.86
2019-04-26T00:20:34.638Z,18.86
2019-04-26T00:21:16.135Z,18.88
2019-04-26T00:21:55.841Z,18.89
2019-04-26T00:22:36.414Z,18.86
2019-04-26T00:23:16.974Z,18.77
2019-04-26T00:23:57.557Z,18.77
2019-04-26T00:24:38.169Z,18.8
2019-04-26T00:25:25.337Z,18.75
2019-04-26T00:26:05.925Z,18.81
2019-04-26T00:26:46.514Z,18.86
2019-04-26T00:27:27.087Z,18.81
2019-04-26T00:28:07.679Z,18.8
2019-04-26T00:28:48.245Z,18.9
2019-04-26T00:29:28.813Z,18.86
2019-04-26T00:30:09.393Z,18.78
2019-04-26T00:30:49.987Z,18.8
2019-04-26T00:31:30.580Z,18.77
2019-04-26T00:32:12.101Z,18.81
2019-04-26T00:32:51.736Z,18.77
2019-04-26T00:33:32.646Z,18.73
2019-04-26T00:34:13.587Z,18.73
2019-04-26T00:34:53.853Z,18.75
2019-04-26T00:35:46.491Z,18.7
2019-04-26T00:36:15.034Z,18.7
2019-04-26T00:36:55.587Z,18.65
2019-04-26T00:37:36.160Z,18.65
2019-04-26T00:38:16.775Z,18.73
2019-04-26T00:38:57.335Z,18.65
2019-04-26T00:39:37.914Z,18.66
2019-04-26T00:40:18.511Z,18.66
2019-04-26T00:40:59.078Z,18.55
2019-04-26T00:41:39.638Z,18.6
2019-04-26T00:42:20.626Z,18.62
2019-04-26T00:43:00.783Z,18.56
2019-04-26T00:43:41.372Z,18.65
2019-04-26T00:44:22.820Z,18.56
2019-04-26T00:45:02.491Z,18.58
2019-04-26T00:45:43.077Z,18.56
2019-04-26T00:46:23.633Z,18.6
2019-04-26T00:47:04.224Z,18.6
2019-04-26T00:47:44.787Z,18.58
2019-04-26T00:48:25.399Z,18.56
2019-04-26T00:49:05.983Z,18.5
2019-04-26T00:49:46.550Z,18.62
2019-04-26T00:50:27.118Z,18.55
2019-04-26T00:51:07.675Z,18.59
2019-04-26T00:51:48.220Z,18.55
2019-04-26T00:52:28.822Z,18.63
2019-04-26T00:53:09.353Z,18.59
2019-04-26T00:53:49.937Z,18.6
2019-04-26T00:54:30.502Z,18.62
2019-04-26T00:55:11.069Z,18.58
2019-04-26T00:55:51.620Z,18.58
2019-04-26T00:56:32.185Z,18.6
2019-04-26T00:57:14.437Z,18.62
2019-04-26T00:57:53.292Z,18.52
2019-04-26T00:58:33.864Z,18.53
2019-04-26T00:59:15.022Z,18.52
2019-04-26T00:59:55.004Z,18.49
2019-04-26T01:00:35.561Z,18.53
2019-04-26T01:01:16.498Z,18.53
2019-04-26T01:01:56.676Z,18.53
2019-04-26T01:02:37.234Z,18.53
2019-04-26T01:03:18.609Z,18.53
2019-04-26T01:03:58.350Z,18.56
2019-04-26T01:04:38.903Z,18.53
2019-04-26T01:05:19.495Z,18.59
2019-04-26T01:06:00.429Z,18.55
2019-04-26T01:06:40.595Z,18.55
2019-04-26T01:07:21.254Z,18.55
2019-04-26T01:08:01.755Z,18.55
2019-04-26T01:11:00.580Z,18.53
2019-04-26T01:11:41.146Z,18.53
2019-04-26T01:12:21.966Z,18.5
2019-04-26T01:13:02.295Z,18.55
2019-04-26T01:13:42.845Z,18.53
2019-04-26T01:14:24.133Z,18.52
2019-04-26T01:15:03.970Z,18.52
2019-04-26T01:15:44.542Z,18.52
2019-04-26T01:16:25.104Z,18.55
2019-04-26T01:17:05.669Z,18.49
2019-04-26T01:17:46.230Z,18.53
2019-04-26T01:18:26.791Z,18.53
2019-04-26T01:19:07.344Z,18.56
2019-04-26T01:19:47.893Z,18.49
2019-04-26T01:20:28.448Z,18.49
2019-04-26T01:21:09.013Z,18.53
2019-04-26T01:21:49.565Z,18.47
2019-04-26T01:22:30.129Z,18.47
2019-04-26T01:23:10.680Z,18.45
2019-04-26T01:23:51.239Z,18.47
2019-04-26T01:24:31.799Z,18.43
2019-04-26T01:27:45.732Z,18.5
2019-04-26T01:28:26.286Z,18.49
2019-04-26T01:29:06.853Z,18.5
2019-04-26T01:29:47.414Z,18.43
2019-04-26T01:30:27.977Z,18.41
2019-04-26T01:31:08.587Z,18.41
2019-04-26T01:31:49.145Z,18.43
2019-04-26T01:32:29.729Z,18.55
2019-04-26T01:33:10.279Z,18.4
2019-04-26T01:33:51.406Z,18.41
2019-04-26T01:34:31.988Z,18.49
2019-04-26T01:35:12.537Z,18.43
2019-04-26T01:35:53.105Z,18.49
2019-04-26T01:36:33.643Z,18.43
2019-04-26T01:37:14.213Z,18.43
2019-04-26T01:37:54.773Z,18.43
2019-04-26T01:38:35.349Z,18.44
2019-04-26T01:39:15.906Z,18.47
2019-04-26T01:39:56.480Z,18.4
2019-04-26T01:40:37.029Z,18.44
2019-04-26T01:41:17.615Z,18.43
2019-04-26T01:41:58.257Z,18.44
2019-04-26T01:42:38.819Z,18.45
2019-04-26T01:43:20.045Z,18.37
2019-04-26T01:43:59.950Z,18.37
2019-04-26T01:44:40.509Z,18.38
2019-04-26T01:45:21.751Z,18.47
2019-04-26T01:46:01.661Z,18.37
2019-04-26T01:46:42.220Z,18.45
2019-04-26T01:47:22.778Z,18.45
2019-04-26T01:48:03.330Z,18.47
2019-04-26T01:48:43.938Z,18.37
2019-04-26T01:49:24.479Z,18.44
2019-04-26T01:50:05.055Z,18.44
2019-04-26T01:50:45.618Z,18.37
2019-04-26T01:51:26.602Z,18.34
2019-04-26T01:52:06.741Z,18.44
2019-04-26T01:52:47.299Z,18.45
2019-04-26T01:53:28.762Z,18.34
2019-04-26T01:54:08.417Z,18.49
2019-04-26T01:54:48.980Z,18.45
2019-04-26T01:58:02.910Z,18.45
2019-04-26T01:58:43.463Z,18.45
2019-04-26T01:59:25.208Z,18.34
2019-04-26T02:00:04.581Z,18.38
2019-04-26T02:00:45.142Z,18.37
2019-04-26T02:01:25.697Z,18.35
2019-04-26T02:02:06.279Z,18.37
2019-04-26T02:02:46.876Z,18.34
2019-04-26T02:03:27.791Z,18.31
2019-04-26T02:04:08.043Z,18.31
2019-04-26T02:04:48.605Z,18.25
2019-04-26T02:05:29.928Z,18.33
2019-04-26T02:06:09.731Z,18.34
2019-04-26T02:06:50.336Z,18.26
2019-04-26T02:07:30.885Z,18.26
2019-04-26T02:08:11.451Z,18.35
2019-04-26T02:08:52.025Z,18.34
2019-04-26T02:09:32.779Z,18.29
2019-04-26T02:10:13.161Z,18.25
2019-04-26T02:10:53.727Z,18.23
2019-04-26T02:11:34.307Z,18.31
2019-04-26T02:12:14.855Z,18.28
2019-04-26T02:12:55.436Z,18.34
2019-04-26T02:13:35.998Z,18.2
2019-04-26T02:14:16.556Z,18.2
2019-04-26T02:14:57.112Z,18.31
2019-04-26T02:15:37.689Z,18.13
2019-04-26T02:16:18.250Z,18.13
2019-04-26T02:16:58.809Z,18.18
2019-04-26T02:17:39.368Z,18.16
2019-04-26T02:18:19.951Z,18.15
2019-04-26T02:19:00.557Z,18.19
2019-04-26T02:19:41.121Z,18.11
2019-04-26T02:20:21.673Z,18.16
2019-04-26T02:21:02.226Z,18.13
2019-04-26T02:21:42.806Z,18.08
2019-04-26T02:22:24.338Z,18.08
2019-04-26T02:23:03.918Z,18.1
2019-04-26T02:23:44.480Z,18.15
2019-04-26T02:24:26.346Z,18.1
2019-04-26T02:25:05.618Z,18.1
2019-04-26T02:25:46.184Z,18.03
2019-04-26T02:26:26.801Z,18.08
2019-04-26T02:27:07.273Z,18
2019-04-26T02:27:47.834Z,18.01
2019-04-26T02:28:28.414Z,18.01
2019-04-26T02:29:09.002Z,18.05
2019-04-26T02:29:49.564Z,17.95
2019-04-26T02:30:30.993Z,18.01
2019-04-26T02:31:10.778Z,17.95
2019-04-26T02:31:51.339Z,17.94
2019-04-26T02:32:33.158Z,18
2019-04-26T02:33:12.471Z,17.94
2019-04-26T02:33:53.488Z,17.97
2019-04-26T02:34:35.772Z,17.95
2019-04-26T02:35:14.604Z,17.94
2019-04-26T02:35:55.156Z,17.98
2019-04-26T02:36:52.647Z,17.9
2019-04-26T02:37:16.258Z,17.94
2019-04-26T02:37:56.833Z,17.94
2019-04-26T02:38:37.410Z,17.89
2019-04-26T02:39:17.969Z,17.92
2019-04-26T02:39:58.563Z,17.9
2019-04-26T02:40:39.134Z,17.9
2019-04-26T02:41:19.691Z,17.95
2019-04-26T02:42:00.270Z,17.92
2019-04-26T02:42:40.846Z,17.83
2019-04-26T02:43:21.418Z,17.83
2019-04-26T02:44:01.962Z,17.79
2019-04-26T02:44:42.528Z,17.89
2019-04-26T02:45:23.081Z,17.82
2019-04-26T02:46:03.655Z,17.87
2019-04-26T02:46:44.237Z,17.87
2019-04-26T02:47:24.802Z,17.8
2019-04-26T02:48:05.369Z,17.89
2019-04-26T02:48:45.915Z,17.83
2019-04-26T02:49:27.345Z,17.85
2019-04-26T02:50:07.046Z,17.8
2019-04-26T02:50:47.636Z,17.82
2019-04-26T02:51:29.043Z,17.87
2019-04-26T02:52:08.783Z,17.89
2019-04-26T02:52:49.335Z,17.89
2019-04-26T02:53:31.481Z,17.83
2019-04-26T02:54:10.469Z,17.85
2019-04-26T02:54:51.044Z,17.82
2019-04-26T02:55:36.694Z,17.9
2019-04-26T02:56:12.186Z,17.76
2019-04-26T02:56:52.750Z,17.85
2019-04-26T02:57:34.337Z,17.82
2019-04-26T02:58:13.878Z,17.76
2019-04-26T02:58:54.428Z,17.83
2019-04-26T02:59:36.750Z,17.78
2019-04-26T03:00:15.559Z,17.8
2019-04-26T03:00:56.121Z,17.87
2019-04-26T03:01:38.649Z,17.85
2019-04-26T03:02:17.248Z,17.82
2019-04-26T03:02:57.832Z,17.79
2019-04-26T03:03:39.711Z,17.83
2019-04-26T03:04:18.946Z,17.82
2019-04-26T03:04:59.507Z,17.86
2019-04-26T03:05:40.066Z,17.74
2019-04-26T03:06:20.625Z,17.79
2019-04-26T03:07:03.252Z,17.82
2019-04-26T03:07:42.771Z,17.71
2019-04-26T03:08:22.326Z,17.78
2019-04-26T03:09:02.880Z,17.76
2019-04-26T03:09:43.437Z,17.76
2019-04-26T03:10:24.021Z,17.72
2019-04-26T03:11:04.564Z,17.82
2019-04-26T03:11:45.145Z,17.78
2019-04-26T03:12:25.712Z,17.83
2019-04-26T03:13:06.268Z,17.74
2019-04-26T03:13:46.822Z,17.72
2019-04-26T03:14:27.387Z,17.74
2019-04-26T03:15:13.651Z,17.72
2019-04-26T03:15:48.518Z,17.76
2019-04-26T03:16:29.086Z,17.8
2019-04-26T03:17:09.646Z,17.71
2019-04-26T03:17:50.214Z,17.78
2019-04-26T03:18:31.668Z,17.71
2019-04-26T03:19:11.299Z,17.76
2019-04-26T03:19:51.861Z,17.78
2019-04-26T03:20:33.038Z,17.74
2019-04-26T03:21:12.993Z,17.76
2019-04-26T03:21:53.549Z,17.72
2019-04-26T03:22:35.596Z,17.76
2019-04-26T03:23:14.695Z,17.72
2019-04-26T03:23:58.409Z,17.76
2019-04-26T03:24:37.152Z,17.72
2019-04-26T03:25:16.382Z,17.7
2019-04-26T03:25:56.933Z,17.74
2019-04-26T03:26:39.032Z,17.71
2019-04-26T03:27:18.084Z,17.67
2019-04-26T03:27:58.640Z,17.68
2019-04-26T03:28:40.077Z,17.72
2019-04-26T03:29:19.772Z,17.78
2019-04-26T03:32:18.565Z,17.78
2019-04-26T03:32:59.292Z,17.65
2019-04-26T03:33:49.833Z,17.71
2019-04-26T03:34:21.136Z,17.71
2019-04-26T03:35:01.397Z,17.74
2019-04-26T03:35:55.283Z,17.78
2019-04-26T03:36:22.529Z,17.7
2019-04-26T03:37:19.314Z,17.65
2019-04-26T03:37:44.449Z,17.72
2019-04-26T03:38:24.227Z,17.6
2019-04-26T03:39:04.765Z,17.59
2019-04-26T03:39:45.329Z,17.56
2019-04-26T03:40:25.902Z,17.56
2019-04-26T03:41:06.448Z,17.57
2019-04-26T03:41:47.018Z,17.6
2019-04-26T03:42:27.568Z,17.64
2019-04-26T03:43:08.136Z,17.65
2019-04-26T03:43:48.702Z,17.64
2019-04-26T03:44:29.260Z,17.64
2019-04-26T03:45:09.823Z,17.67
2019-04-26T03:45:50.380Z,17.6
2019-04-26T03:46:30.940Z,17.64
2019-04-26T03:47:11.512Z,17.57
2019-04-26T03:47:52.071Z,17.59
2019-04-26T03:48:33.907Z,17.49
2019-04-26T03:49:13.243Z,17.59
2019-04-26T03:49:54.488Z,17.46
2019-04-26T03:50:35.789Z,17.57
2019-04-26T03:51:14.932Z,17.67
2019-04-26T03:51:55.523Z,17.49
2019-04-26T03:52:37.792Z,17.57
2019-04-26T03:53:16.685Z,17.59
2019-04-26T03:53:57.351Z,17.46
2019-04-26T03:54:39.230Z,17.54
2019-04-26T03:55:18.496Z,17.48
2019-04-26T03:55:59.056Z,17.45
2019-04-26T03:56:40.242Z,17.45
2019-04-26T03:57:20.164Z,17.56
2019-04-26T03:58:00.747Z,17.51
2019-04-26T03:58:41.832Z,17.51
2019-04-26T03:59:21.892Z,17.49
2019-04-26T04:00:02.462Z,17.45
2019-04-26T04:00:44.980Z,17.51
2019-04-26T04:01:23.595Z,17.46
2019-04-26T04:02:04.181Z,17.44
2019-04-26T04:02:45.501Z,17.44
2019-04-26T04:03:26.883Z,17.46
2019-04-26T04:04:06.034Z,17.48
2019-04-26T04:04:46.822Z,17.44
2019-04-26T04:05:27.171Z,17.42
2019-04-26T04:06:07.750Z,17.48
2019-04-26T04:06:57.904Z,17.39
2019-04-26T04:07:37.611Z,17.44
2019-04-26T04:08:09.485Z,17.44
2019-04-26T04:08:50.046Z,17.44
2019-04-26T04:09:30.626Z,17.45
2019-04-26T04:10:11.270Z,17.48
2019-04-26T04:10:51.925Z,17.51
2019-04-26T04:11:32.526Z,17.51
2019-04-26T04:12:13.169Z,17.46
2019-04-26T04:12:53.663Z,17.41
2019-04-26T04:13:34.322Z,17.48
2019-04-26T04:14:14.868Z,17.48
2019-04-26T04:14:55.483Z,17.45
2019-04-26T04:15:37.869Z,17.45
2019-04-26T04:16:16.565Z,17.44
2019-04-26T04:16:57.101Z,17.44
2019-04-26T04:17:39.509Z,17.46
2019-04-26T04:18:18.237Z,17.51
2019-04-26T04:18:58.779Z,17.48
2019-04-26T04:19:40.651Z,17.45
2019-04-26T04:20:19.960Z,17.46
2019-04-26T04:21:00.545Z,17.46
2019-04-26T04:21:42.563Z,17.46
2019-04-26T04:22:21.673Z,17.48
2019-04-26T04:23:02.227Z,17.46
2019-04-26T04:23:43.428Z,17.45
2019-04-26T04:24:23.435Z,17.46
2019-04-26T04:25:04.029Z,17.45
2019-04-26T04:25:45.770Z,17.52
2019-04-26T04:26:25.126Z,17.46
2019-04-26T04:27:05.685Z,17.49
2019-04-26T04:27:47.685Z,17.45
2019-04-26T04:28:26.813Z,17.42
2019-04-26T04:29:07.362Z,17.45
2019-04-26T04:29:53.220Z,17.39
2019-04-26T04:30:28.509Z,17.41
2019-04-26T04:31:09.092Z,17.38
2019-04-26T04:31:49.629Z,17.39
2019-04-26T04:32:30.221Z,17.44
2019-04-26T04:33:10.761Z,17.42
2019-04-26T04:33:52.580Z,17.39
2019-04-26T04:34:31.886Z,17.34
2019-04-26T04:35:12.461Z,17.42
2019-04-26T04:35:53.097Z,17.33
2019-04-26T04:36:33.567Z,17.33
2019-04-26T04:37:14.120Z,17.33
2019-04-26T04:38:08.303Z,17.33
2019-04-26T04:38:35.245Z,17.33
2019-04-26T04:39:15.801Z,17.31
2019-04-26T04:39:56.363Z,17.38
2019-04-26T04:40:36.927Z,17.31
2019-04-26T04:41:17.504Z,17.38
2019-04-26T04:41:58.054Z,17.34
2019-04-26T04:42:38.704Z,17.38
2019-04-26T04:43:19.426Z,17.33
2019-04-26T04:43:59.776Z,17.29
2019-04-26T04:44:42.293Z,17.27
2019-04-26T04:45:20.907Z,17.39
2019-04-26T04:46:01.604Z,17.33
2019-04-26T04:46:43.785Z,17.33
2019-04-26T04:47:25.265Z,17.31
2019-04-26T04:48:03.471Z,17.34
2019-04-26T04:48:45.004Z,17.38
2019-04-26T04:49:24.781Z,17.3
2019-04-26T04:50:05.462Z,17.3
2019-04-26T04:50:47.344Z,17.33
2019-04-26T04:51:26.862Z,17.39
2019-04-26T04:52:07.430Z,17.34
2019-04-26T04:52:48.229Z,17.33
2019-04-26T04:53:28.543Z,17.33
2019-04-26T04:54:09.100Z,17.29
2019-04-26T04:55:03.047Z,17.3
2019-04-26T04:55:30.245Z,17.31
2019-04-26T04:56:10.814Z,17.33
2019-04-26T04:56:51.919Z,17.44
2019-04-26T04:57:31.941Z,17.3
2019-04-26T04:58:12.493Z,17.3
2019-04-26T04:58:53.049Z,17.33
2019-04-26T04:59:33.594Z,17.31
2019-04-26T05:00:14.166Z,17.34
2019-04-26T05:00:54.725Z,17.39
2019-04-26T05:01:35.290Z,17.36
2019-04-26T05:02:15.853Z,17.33
2019-04-26T05:02:56.439Z,17.38
2019-04-26T05:03:36.996Z,17.34
2019-04-26T05:04:17.695Z,17.34
2019-04-26T05:04:58.283Z,17.36
2019-04-26T05:05:38.808Z,17.42
2019-04-26T05:06:19.374Z,17.38
2019-04-26T05:06:59.937Z,17.41
2019-04-26T05:07:40.504Z,17.38
2019-04-26T05:08:21.083Z,17.41
2019-04-26T05:09:01.637Z,17.42
2019-04-26T05:09:43.865Z,17.39
2019-04-26T05:10:22.766Z,17.41
2019-04-26T05:11:03.348Z,17.48
2019-04-26T05:11:44.778Z,17.51
2019-04-26T05:12:24.453Z,17.46
2019-04-26T05:13:05.044Z,17.46
2019-04-26T05:13:46.344Z,17.45
2019-04-26T05:14:26.180Z,17.52
2019-04-26T05:15:06.812Z,17.6
2019-04-26T05:15:48.398Z,17.49
2019-04-26T05:16:27.935Z,17.52
2019-04-26T05:17:08.504Z,17.6
2019-04-26T05:17:49.545Z,17.57
2019-04-26T05:18:29.630Z,17.65
2019-04-26T05:19:10.194Z,17.59
2019-04-26T05:19:50.747Z,17.63
2019-04-26T05:20:31.325Z,17.74
2019-04-26T05:21:11.890Z,17.59
2019-04-26T05:21:52.970Z,17.67
2019-04-26T05:22:33.044Z,17.65
2019-04-26T05:23:13.612Z,17.76
2019-04-26T05:23:55.155Z,17.79
2019-04-26T05:24:34.779Z,17.72
2019-04-26T05:25:15.344Z,17.72
2019-04-26T05:25:55.899Z,17.76
2019-04-26T05:26:36.550Z,17.8
2019-04-26T05:27:17.104Z,17.79
2019-04-26T05:27:57.663Z,17.72
2019-04-26T05:28:38.212Z,17.76
2019-04-26T05:29:18.775Z,17.72
2019-04-26T05:29:59.334Z,17.74
2019-04-26T05:30:39.928Z,17.78
2019-04-26T05:31:20.563Z,17.9
2019-04-26T05:32:01.987Z,17.85
2019-04-26T05:32:42.680Z,17.85
2019-04-26T05:33:23.688Z,17.78
2019-04-26T05:34:04.251Z,17.82
2019-04-26T05:34:44.811Z,17.82
2019-04-26T05:35:25.385Z,17.87
2019-04-26T05:36:05.951Z,17.86
2019-04-26T05:36:47.731Z,17.89
2019-04-26T05:37:27.221Z,17.86
2019-04-26T05:38:17.896Z,17.94
2019-04-26T05:38:49.326Z,17.89
2019-04-26T05:39:28.901Z,17.94
2019-04-26T05:40:09.443Z,17.94
2019-04-26T05:40:50.030Z,17.94
2019-04-26T05:41:30.575Z,17.94
2019-04-26T05:42:11.202Z,17.98
2019-04-26T05:42:51.775Z,18.01
2019-04-26T05:43:32.334Z,17.98
2019-04-26T05:44:12.956Z,18.04
2019-04-26T05:44:54.575Z,18
2019-04-26T05:45:34.198Z,18.04
2019-04-26T05:46:14.880Z,18.08
2019-04-26T05:46:55.771Z,18.08
2019-04-26T05:47:36.079Z,18.1
2019-04-26T05:48:16.696Z,18.16
2019-04-26T05:48:57.830Z,18.18
2019-04-26T05:49:37.838Z,18.19
2019-04-26T05:50:18.419Z,18.22
2019-04-26T05:50:59.094Z,18.2
2019-04-26T05:51:39.653Z,18.2
2019-04-26T05:52:20.259Z,18.19
2019-04-26T05:53:01.846Z,18.28
2019-04-26T05:53:41.396Z,18.22
2019-04-26T05:54:21.968Z,18.26
2019-04-26T05:55:02.703Z,18.22
2019-04-26T05:55:43.147Z,18.35
2019-04-26T05:56:23.770Z,18.29
2019-04-26T05:57:04.365Z,18.33
2019-04-26T05:57:44.922Z,18.38
2019-04-26T05:58:25.534Z,18.5
2019-04-26T05:59:06.107Z,18.38
2019-04-26T05:59:46.759Z,18.43
2019-04-26T06:00:27.307Z,18.47
2019-04-26T06:01:07.889Z,18.4
2019-04-26T06:01:48.520Z,18.5
2019-04-26T06:02:29.128Z,18.55
2019-04-26T06:03:09.723Z,18.58
2019-04-26T06:03:50.858Z,18.68
2019-04-26T06:04:30.947Z,18.75
2019-04-26T06:05:11.557Z,18.74
2019-04-26T06:05:52.378Z,18.68
2019-04-26T06:06:32.665Z,18.83
2019-04-26T06:07:13.230Z,18.78
2019-04-26T06:07:54.217Z,18.83
2019-04-26T06:08:34.391Z,18.95
2019-04-26T06:09:15.142Z,18.92
2019-04-26T06:09:56.482Z,18.99
2019-04-26T06:10:36.298Z,19.04
2019-04-26T06:11:16.895Z,19.04
2019-04-26T06:11:58.690Z,19.15
2019-04-26T06:12:38.234Z,19.27
2019-04-26T06:13:18.775Z,19.24
2019-04-26T06:13:59.878Z,19.37
2019-04-26T06:14:39.944Z,19.45
2019-04-26T06:15:20.478Z,19.51
2019-04-26T06:16:01.065Z,19.66
2019-04-26T06:16:41.646Z,19.52
2019-04-26T06:17:22.208Z,19.66
2019-04-26T06:18:02.915Z,19.66
2019-04-26T06:18:43.460Z,19.69
2019-04-26T06:19:24.097Z,19.89
2019-04-26T06:20:04.748Z,19.99
2019-04-26T06:20:45.354Z,19.99
2019-04-26T06:21:25.991Z,20.14
2019-04-26T06:22:06.546Z,20.19
2019-04-26T06:22:47.149Z,20.26
2019-04-26T06:23:27.697Z,20.41
2019-04-26T06:24:08.307Z,20.51
2019-04-26T06:24:48.894Z,20.58
2019-04-26T06:25:29.482Z,20.72
2019-04-26T06:26:10.355Z,20.75
2019-04-26T06:26:52.774Z,20.84
2019-04-26T06:27:31.561Z,20.95
2019-04-26T06:28:12.127Z,20.99
2019-04-26T06:28:53.061Z,21.03
2019-04-26T06:29:33.286Z,21.09
2019-04-26T06:30:13.873Z,21.27
2019-04-26T06:30:55.457Z,21.35
2019-04-26T06:31:35.175Z,21.43
2019-04-26T06:32:15.884Z,21.55
2019-04-26T06:35:14.648Z,21.88
2019-04-26T06:35:55.768Z,22.06
2019-04-26T06:36:35.771Z,22.11
2019-04-26T06:37:16.331Z,22.22
2019-04-26T06:37:57.323Z,22.35
2019-04-26T06:38:43.441Z,22.41
2019-04-26T06:39:18.053Z,22.43
2019-04-26T06:39:58.648Z,22.51
2019-04-26T06:40:41.905Z,22.59
2019-04-26T06:41:21.453Z,22.63
2019-04-26T06:42:00.770Z,22.63
2019-04-26T06:42:41.098Z,22.7
2019-04-26T06:43:21.673Z,22.76
2019-04-26T06:44:02.710Z,22.83
2019-04-26T06:44:42.822Z,22.8
2019-04-26T06:45:23.388Z,22.87
2019-04-26T06:46:04.683Z,22.96
2019-04-26T06:46:47.309Z,23
2019-04-26T06:47:25.146Z,23.08
2019-04-26T06:48:06.059Z,23.05
2019-04-26T06:48:46.324Z,23.09
2019-04-26T06:49:26.912Z,23.13
2019-04-26T06:50:07.947Z,23.1
2019-04-26T06:50:48.144Z,23.17
2019-04-26T06:51:28.734Z,23.34
2019-04-26T06:52:09.300Z,23.32
2019-04-26T06:52:49.892Z,23.31
2019-04-26T06:53:30.452Z,23.39
2019-04-26T06:54:11.041Z,23.5
2019-04-26T06:54:51.640Z,23.48
2019-04-26T06:55:32.338Z,23.54
2019-04-26T06:56:12.846Z,23.62
2019-04-26T06:56:53.427Z,23.8
2019-04-26T06:57:34.016Z,23.88
2019-04-26T06:58:14.619Z,23.98
2019-04-26T06:58:55.202Z,23.98
2019-04-26T06:59:36.789Z,24.1
2019-04-26T07:00:16.369Z,24.2
2019-04-26T07:00:57.553Z,24.24
2019-04-26T07:01:37.534Z,24.18
2019-04-26T07:02:18.134Z,24.24
2019-04-26T07:02:58.930Z,24.13
2019-04-26T07:03:39.267Z,24.16
2019-04-26T07:04:19.852Z,24.2
2019-04-26T07:05:00.711Z,24.21
2019-04-26T07:05:41.023Z,24.2
2019-04-26T07:06:34.310Z,24.2
2019-04-26T07:07:02.623Z,24.16
2019-04-26T07:07:42.781Z,24.16
2019-04-26T07:08:23.371Z,24.13
2019-04-26T07:09:03.968Z,24.16
2019-04-26T07:09:44.574Z,24.2
2019-04-26T07:10:25.158Z,24.14
2019-04-26T07:11:06.835Z,24.13
2019-04-26T07:11:46.383Z,23.96
2019-04-26T07:12:26.985Z,23.98
2019-04-26T07:13:07.807Z,23.92
2019-04-26T07:13:48.158Z,23.81
2019-04-26T07:14:28.727Z,23.69
2019-04-26T07:15:09.323Z,23.65
2019-04-26T07:15:49.912Z,23.62
2019-04-26T07:16:30.553Z,23.56
2019-04-26T07:17:12.108Z,23.48
2019-04-26T07:17:51.812Z,23.32
2019-04-26T07:18:32.412Z,23.37
2019-04-26T07:19:13.297Z,23.34
2019-04-26T07:19:53.588Z,23.18
2019-04-26T07:20:34.245Z,23.21
2019-04-26T07:21:14.931Z,23.08
2019-04-26T07:21:55.519Z,23.06
2019-04-26T07:22:36.123Z,23.1
2019-04-26T07:23:16.698Z,23.03
2019-04-26T07:23:57.300Z,23.06
2019-04-26T07:24:37.940Z,23.02
2019-04-26T07:25:18.505Z,22.96
2019-04-26T07:25:59.173Z,22.99
2019-04-26T07:26:39.661Z,22.85
2019-04-26T07:27:20.254Z,22.91
2019-04-26T07:28:04.287Z,22.91
2019-04-26T07:28:41.438Z,22.91
2019-04-26T07:29:21.991Z,22.76
2019-04-26T07:30:03.902Z,22.88
2019-04-26T07:30:43.128Z,22.78
2019-04-26T07:31:23.694Z,22.81
2019-04-26T07:32:05.232Z,22.73
2019-04-26T07:32:44.862Z,22.94
2019-04-26T07:33:25.435Z,23.03
2019-04-26T07:34:06.013Z,23.23
2019-04-26T07:34:46.585Z,23.41
2019-04-26T07:35:27.148Z,23.59
2019-04-26T07:36:07.713Z,23.69
2019-04-26T07:36:48.272Z,23.91
2019-04-26T07:37:28.829Z,24.01
2019-04-26T07:38:09.406Z,24.16
2019-04-26T07:38:49.972Z,24.18
2019-04-26T07:39:30.517Z,24.35
2019-04-26T07:40:11.354Z,24.53
2019-04-26T07:40:51.656Z,24.66
2019-04-26T07:41:32.246Z,24.78
2019-04-26T07:42:12.825Z,24.77
2019-04-26T07:42:53.411Z,24.77
2019-04-26T07:43:34.009Z,24.81
2019-04-26T07:44:14.588Z,24.78
2019-04-26T07:44:55.162Z,24.96
2019-04-26T07:45:35.751Z,25.03
2019-04-26T07:46:16.335Z,25.01
2019-04-26T07:46:56.895Z,25.08
2019-04-26T07:47:37.460Z,24.99
2019-04-26T07:48:18.059Z,24.96
2019-04-26T07:48:58.643Z,24.99
2019-04-26T07:49:39.223Z,24.85
2019-04-26T07:50:19.825Z,24.74
2019-04-26T07:51:00.384Z,24.69
2019-04-26T07:51:40.968Z,24.6
2019-04-26T07:52:21.543Z,24.63
2019-04-26T07:53:03.193Z,24.61
2019-04-26T07:53:42.736Z,24.55
2019-04-26T07:54:23.332Z,24.48
2019-04-26T07:55:04.839Z,24.5
2019-04-26T07:55:44.525Z,24.38
2019-04-26T07:56:25.080Z,24.3
2019-04-26T07:57:06.590Z,24.29
2019-04-26T07:57:46.276Z,24.18
2019-04-26T07:58:26.849Z,24.16
2019-04-26T07:59:08.666Z,24.16
2019-04-26T07:59:48.044Z,24.11
2019-04-26T08:00:28.612Z,24.1
2019-04-26T08:01:09.902Z,23.95
2019-04-26T08:01:49.893Z,24.01
2019-04-26T08:02:30.501Z,23.96
2019-04-26T08:03:11.072Z,23.92
2019-04-26T08:03:51.671Z,23.83
2019-04-26T08:04:32.239Z,23.73
2019-04-26T08:05:13.521Z,23.71
2019-04-26T08:05:53.396Z,23.68
2019-04-26T08:06:33.958Z,23.62
2019-04-26T08:07:15.330Z,23.55
2019-04-26T08:07:55.160Z,23.54
2019-04-26T08:08:35.763Z,23.48
2019-04-26T08:09:26.175Z,23.43
2019-04-26T08:09:59.642Z,23.36
2019-04-26T08:10:37.513Z,23.44
2019-04-26T08:11:18.118Z,23.34
2019-04-26T08:11:58.708Z,23.36
2019-04-26T08:12:39.287Z,23.41
2019-04-26T08:13:19.868Z,23.44
2019-04-26T08:14:00.492Z,23.43
2019-04-26T08:14:41.093Z,23.37
2019-04-26T08:15:21.689Z,23.44
2019-04-26T08:16:02.312Z,23.28
2019-04-26T08:16:42.900Z,23.4
2019-04-26T08:17:23.528Z,23.36
2019-04-26T08:18:05.187Z,23.32
2019-04-26T08:18:44.772Z,23.43
2019-04-26T08:19:25.349Z,23.46
2019-04-26T08:20:09.033Z,23.41
2019-04-26T08:20:48.197Z,23.4
2019-04-26T08:21:27.243Z,23.39
2019-04-26T08:22:15.831Z,23.36
2019-04-26T08:22:48.438Z,23.34
2019-04-26T08:23:39.451Z,23.31
2019-04-26T08:24:09.992Z,23.32
2019-04-26T08:24:50.224Z,23.32
2019-04-26T08:25:30.814Z,23.4
2019-04-26T08:26:11.420Z,23.39
2019-04-26T08:26:51.976Z,23.36
2019-04-26T08:27:32.535Z,23.51
2019-04-26T08:28:14.174Z,23.4
2019-04-26T08:28:56.558Z,23.44
2019-04-26T08:29:34.623Z,23.39
2019-04-26T08:30:17.375Z,23.5
2019-04-26T08:30:55.436Z,23.4
2019-04-26T08:31:36.004Z,23.47
2019-04-26T08:32:16.597Z,23.43
2019-04-26T08:32:57.271Z,23.4
2019-04-26T08:33:40.364Z,23.5
2019-04-26T08:34:20.585Z,23.36
2019-04-26T08:35:02.216Z,23.44
2019-04-26T08:35:39.696Z,23.32
2019-04-26T08:36:23.154Z,23.41
2019-04-26T08:37:01.775Z,23.39
2019-04-26T08:37:41.477Z,23.44
2019-04-26T08:38:22.846Z,23.43
2019-04-26T08:39:02.697Z,23.47
2019-04-26T08:39:45.061Z,23.32
2019-04-26T08:40:30.598Z,23.34
2019-04-26T08:41:04.866Z,23.24
2019-04-26T08:41:45.058Z,23.27
2019-04-26T08:42:25.631Z,23.21
2019-04-26T08:43:06.224Z,23.18
2019-04-26T08:43:46.788Z,23.21
2019-04-26T08:44:27.334Z,23.18
2019-04-26T08:45:09.173Z,23.15
2019-04-26T08:46:01.660Z,23.17
2019-04-26T08:46:32.201Z,23.21
2019-04-26T08:47:14.120Z,23.17
2019-04-26T08:47:53.452Z,23.17
2019-04-26T08:48:30.970Z,23.24
2019-04-26T08:49:11.583Z,23.25
2019-04-26T08:49:52.160Z,23.36
2019-04-26T08:50:32.746Z,23.34
2019-04-26T08:51:15.263Z,23.34
2019-04-26T08:51:55.875Z,23.51
2019-04-26T08:52:34.546Z,23.56
2019-04-26T08:53:15.152Z,23.66
2019-04-26T08:53:55.722Z,23.81
2019-04-26T08:54:36.330Z,23.91
2019-04-26T08:55:16.926Z,23.98
2019-04-26T08:55:57.501Z,23.95
2019-04-26T08:56:38.068Z,23.88